Terminal Aerodrome Forecast
Issued by NWS

Home | Current Version | Previous Version | Text Only | Print | Product List | Glossary On
Versions: 1 2 3 4 5 6 7 8 9 10 11 12 13 14 15 16
390
FTUS45 KABQ 010529
TAFSAF
TAF
KSAF 010529Z 0106/0206 12020G30KT P6SM VCSH BKN025 OVC040
      TEMPO 0108/0112 5SM -RA BR OVC015
     FM011200 15020G30KT P6SM VCSH OVC015
     FM011500 14015G25KT P6SM VCSH BKN020 BKN040
     FM012000 13018G28KT P6SM VCSH BKN040 BKN070=

USA.gov is the U.S. government's official web portal to all federal, state and local government web resources and services.